Time;durP1;ratioP1;P1;durP2;ratioP2;P2;SDS_P1;SDS_P2;PMS_P1;PMS_P2;Temp;Humidity;BMP_temperature;BMP_pressure;BME280_temperature;BME280_humidity;BME280_pressure;Samples;Min_cycle;Max_cycle;Signal;HPM_P1;HPM_P2
2023/08/08 00:04:40;;;;;;;6.90;1.80;;;;;;;25.06;100.00;100463.31;20889266;28;20405;-71
2023/08/08 00:15:04;;;;;;;4.43;1.35;;;;;;;25.00;100.00;100448.28;20884580;28;20048;-71
2023/08/08 00:25:27;;;;;;;6.88;1.75;;;;;;;24.87;100.00;100450.69;20875012;28;20040;-70
2023/08/08 00:35:51;;;;;;;10.00;2.38;;;;;;;24.84;100.00;100444.53;20898913;28;20049;-70
2023/08/08 00:46:13;;;;;;;6.75;2.25;;;;;;;24.79;100.00;100430.38;20901332;28;20079;-70
2023/08/08 00:56:38;;;;;;;8.15;2.08;;;;;;;24.81;100.00;100429.34;20901195;28;20136;-70
2023/08/08 01:07:22;;;;;;;8.80;2.58;;;;;;;24.78;100.00;100416.00;20828370;28;20095;-70
2023/08/08 01:17:48;;;;;;;9.68;2.55;;;;;;;24.80;100.00;100416.81;20881242;28;20041;-71
2023/08/08 01:28:12;;;;;;;12.52;2.28;;;;;;;24.80;100.00;100426.75;20891484;28;20116;-70
2023/08/08 01:38:38;;;;;;;9.98;2.35;;;;;;;24.67;100.00;100409.38;20877627;28;20583;-70
2023/08/08 01:49:02;;;;;;;11.07;2.55;;;;;;;24.60;100.00;100420.47;20874929;28;20080;-71
2023/08/08 01:59:24;;;;;;;9.85;2.08;;;;;;;24.46;100.00;100419.38;20875491;28;20079;-70
2023/08/08 02:09:50;;;;;;;8.32;2.42;;;;;;;24.31;100.00;100412.88;20876640;28;20441;-70
2023/08/08 02:20:14;;;;;;;10.90;2.42;;;;;;;24.23;100.00;100423.13;20874271;28;20148;-71
2023/08/08 02:30:39;;;;;;;13.82;2.85;;;;;;;24.12;100.00;100417.31;20856229;28;20120;-70
2023/08/08 02:41:01;;;;;;;10.50;2.83;;;;;;;23.94;100.00;100413.66;20898549;28;20103;-70
2023/08/08 02:51:25;;;;;;;7.63;2.92;;;;;;;23.80;100.00;100425.06;20875464;28;20041;-71
2023/08/08 03:01:49;;;;;;;10.05;3.20;;;;;;;23.72;100.00;100420.94;20898229;28;20598;-70
2023/08/08 03:12:15;;;;;;;10.85;3.50;;;;;;;23.62;100.00;100431.25;20900980;28;20538;-70
2023/08/08 03:22:38;;;;;;;10.90;2.85;;;;;;;23.54;100.00;100432.50;20868996;28;20049;-70
2023/08/08 03:33:04;;;;;;;12.50;4.00;;;;;;;23.41;100.00;100427.63;20875866;28;20774;-70
2023/08/08 03:43:27;;;;;;;12.75;3.40;;;;;;;23.37;100.00;100436.75;20904368;28;20048;-71
2023/08/08 03:53:51;;;;;;;10.65;2.97;;;;;;;23.44;100.00;100437.38;20901245;28;20045;-71
2023/08/08 04:04:13;;;;;;;10.55;2.70;;;;;;;23.70;100.00;100444.38;20880728;28;20049;-70
2023/08/08 04:14:37;;;;;;;8.70;2.42;;;;;;;24.19;100.00;100452.09;20914866;28;20160;-71
2023/08/08 04:25:00;;;;;;;6.57;2.00;;;;;;;24.70;100.00;100453.28;20880414;28;20488;-71
2023/08/08 04:35:24;;;;;;;11.10;2.30;;;;;;;25.32;100.00;100455.69;20897606;28;20103;-71
2023/08/08 04:45:28;;;;;;;10.63;2.10;;;;;;;25.89;100.00;100448.25;20902027;28;20119;-71
2023/08/08 04:55:53;;;;;;;8.93;1.95;;;;;;;26.49;100.00;100457.66;20896091;28;20051;-71
2023/08/08 05:06:16;;;;;;;6.43;2.28;;;;;;;27.13;100.00;100456.75;20885154;28;20048;-71
2023/08/08 05:16:40;;;;;;;8.05;2.03;;;;;;;27.89;100.00;100463.09;20876079;28;20953;-71
2023/08/08 05:27:03;;;;;;;6.35;1.52;;;;;;;28.97;100.00;100452.69;20879381;28;20140;-71
2023/08/08 05:37:28;;;;;;;6.90;1.60;;;;;;;30.22;100.00;100464.97;20890517;28;20048;-71
2023/08/08 05:47:51;;;;;;;7.78;1.63;;;;;;;31.06;100.00;100467.09;20887666;28;20052;-70
2023/08/08 05:58:15;;;;;;;7.45;1.80;;;;;;;31.76;100.00;100470.00;20874388;28;20040;-71
2023/08/08 06:08:37;;;;;;;6.68;1.70;;;;;;;32.10;93.78;100477.28;20878666;28;20056;-71
2023/08/08 06:19:02;;;;;;;6.82;1.58;;;;;;;32.37;91.39;100474.25;20863108;28;20061;-72
2023/08/08 06:29:24;;;;;;;8.33;1.57;;;;;;;33.22;81.84;100478.25;20888788;28;20056;-72
2023/08/08 06:39:48;;;;;;;8.02;1.70;;;;;;;32.95;74.30;100484.13;20880105;28;20048;-71
2023/08/08 06:50:11;;;;;;;8.93;1.90;;;;;;;32.27;77.62;100478.72;20883669;28;20095;-70
2023/08/08 07:00:35;;;;;;;6.57;1.63;;;;;;;32.31;79.31;100470.16;20875438;28;20090;-71
2023/08/08 07:10:58;;;;;;;6.82;1.67;;;;;;;33.78;72.63;100464.41;20862171;28;20052;-71
2023/08/08 07:21:23;;;;;;;8.40;1.67;;;;;;;33.77;66.65;100462.69;20889838;28;20066;-72
2023/08/08 07:31:45;;;;;;;7.53;1.70;;;;;;;33.35;64.55;100461.69;20875616;28;20049;-72
2023/08/08 07:42:09;;;;;;;6.47;1.67;;;;;;;34.40;59.83;100467.16;20876192;28;20444;-72
2023/08/08 07:52:26;;;;;;;6.80;1.55;;;;;;;34.87;56.68;100468.44;20890161;28;20052;-72
2023/08/08 08:02:50;;;;;;;9.40;1.85;;;;;;;35.25;53.24;100467.69;20895299;28;20608;-72
2023/08/08 08:13:13;;;;;;;6.00;1.33;;;;;;;35.37;52.98;100468.47;20876134;28;20041;-71
2023/08/08 08:23:37;;;;;;;9.18;1.65;;;;;;;35.15;50.63;100466.78;20883780;28;20533;-72
2023/08/08 08:33:39;;;;;;;7.18;1.48;;;;;;;35.47;48.91;100472.94;20888906;28;20493;-72
2023/08/08 08:44:06;;;;;;;6.85;1.50;;;;;;;35.82;44.64;100469.66;20892642;28;20936;-72
2023/08/08 08:54:29;;;;;;;7.18;1.42;;;;;;;36.11;45.98;100469.63;20883508;28;20768;-70
2023/08/08 09:04:54;;;;;;;7.38;1.58;;;;;;;36.14;47.88;100480.34;20869254;28;20135;-73
2023/08/08 09:15:17;;;;;;;7.90;1.40;;;;;;;36.18;45.89;100470.81;20894570;28;20511;-72
2023/08/08 09:25:42;;;;;;;8.55;1.50;;;;;;;36.33;45.36;100474.81;20870424;28;20049;-73
2023/08/08 09:36:05;;;;;;;7.65;1.70;;;;;;;36.19;44.98;100464.28;20874072;28;20056;-72
2023/08/08 09:46:32;;;;;;;5.40;1.23;;;;;;;36.84;44.29;100462.50;20881435;28;20501;-72
2023/08/08 09:56:56;;;;;;;4.88;1.13;;;;;;;37.15;41.56;100442.97;20910400;28;20048;-71
2023/08/08 10:07:20;;;;;;;9.70;1.40;;;;;;;37.21;41.25;100458.88;20867714;28;20167;-73
2023/08/08 10:17:42;;;;;;;;;;;;;;;37.09;40.57;100464.53;20880164;28;20102;-72
2023/08/08 10:28:10;;;;;;;6.60;1.80;;;;;;;37.22;39.32;100444.91;20876557;28;20458;-72
2023/08/08 10:38:43;;;;;;;4.55;1.30;;;;;;;37.31;38.75;100445.88;20880794;28;20044;-73
2023/08/08 10:49:08;;;;;;;8.05;1.35;;;;;;;36.97;37.43;100449.25;20868549;28;20123;-71
2023/08/08 10:59:38;;;;;;;7.27;1.13;;;;;;;36.87;36.53;100442.06;20873984;28;20095;-71
2023/08/08 11:10:03;;;;;;;6.63;1.00;;;;;;;36.78;36.82;100440.22;20871971;28;20600;-72
2023/08/08 11:20:25;;;;;;;4.72;1.38;;;;;;;36.94;33.70;100440.44;20866228;28;20052;-70
2023/08/08 11:30:52;;;;;;;6.13;0.80;;;;;;;36.92;33.39;100443.34;20890607;28;20482;-70
2023/08/08 11:41:16;;;;;;;3.28;1.00;;;;;;;36.79;36.46;100437.31;20901367;28;20048;-70
2023/08/08 11:51:40;;;;;;;4.47;1.00;;;;;;;36.83;35.26;100426.88;20891585;28;20059;-69
2023/08/08 12:02:02;;;;;;;;;;;;;;;36.66;35.00;100425.81;20880883;28;20060;-70
2023/08/08 12:12:27;;;;;;;7.55;1.80;;;;;;;36.63;35.23;100424.19;20874640;28;19921;-71
2023/08/08 12:22:49;;;;;;;3.58;1.00;;;;;;;36.75;35.31;100424.03;20889859;28;20061;-70
2023/08/08 12:33:14;;;;;;;5.77;0.73;;;;;;;36.58;34.65;100400.88;20894404;28;20087;-69
2023/08/08 12:43:36;;;;;;;3.85;0.88;;;;;;;36.45;33.78;100403.13;20891085;28;20087;-70
2023/08/08 12:54:01;;;;;;;6.55;1.30;;;;;;;36.52;34.67;100401.50;20880811;28;20486;-69
2023/08/08 13:04:25;;;;;;;4.22;0.82;;;;;;;36.50;33.16;100392.53;20883759;28;20118;-70
2023/08/08 13:14:48;;;;;;;3.28;0.95;;;;;;;36.32;33.61;100395.22;20896359;28;20044;-69
2023/08/08 13:25:11;;;;;;;9.23;1.55;;;;;;;36.11;34.00;100409.13;20891087;28;20048;-69
2023/08/08 13:35:15;;;;;;;4.93;0.95;;;;;;;35.98;34.56;100400.34;20894319;28;20052;-69
2023/08/08 13:45:37;;;;;;;4.55;1.20;;;;;;;35.55;35.79;100396.19;20870170;28;20048;-69
2023/08/08 13:56:02;;;;;;;4.07;1.00;;;;;;;35.33;36.63;100404.69;20887139;28;20049;-69
2023/08/08 14:06:06;;;;;;;4.15;1.02;;;;;;;35.29;36.55;100406.00;20871311;28;20045;-68
2023/08/08 14:16:30;;;;;;;5.65;1.20;;;;;;;35.26;37.27;100417.25;20877138;28;20087;-69
2023/08/08 14:26:52;;;;;;;3.20;0.90;;;;;;;35.30;36.97;100407.75;20875876;28;20048;-69
2023/08/08 14:37:17;;;;;;;4.90;1.10;;;;;;;35.52;36.34;100403.84;20875096;28;20052;-68
2023/08/08 14:47:40;;;;;;;4.75;1.02;;;;;;;35.63;36.40;100403.69;20878639;28;20099;-69
2023/08/08 14:58:04;;;;;;;2.58;1.00;;;;;;;35.22;36.06;100414.97;20889691;28;20045;-69
2023/08/08 15:08:25;;;;;;;5.18;1.02;;;;;;;34.32;37.27;100406.69;20866475;28;20046;-70
2023/08/08 15:18:49;;;;;;;5.38;1.00;;;;;;;33.44;39.27;100404.28;20864878;28;20049;-68
2023/08/08 15:29:11;;;;;;;6.68;1.10;;;;;;;32.79;40.71;100416.13;20876878;28;20091;-69
2023/08/08 15:39:35;;;;;;;5.70;1.30;;;;;;;32.18;43.11;100411.13;20888887;28;20041;-68
2023/08/08 15:49:58;;;;;;;4.78;1.45;;;;;;;31.62;47.89;100408.25;20900615;28;20045;-68
2023/08/08 16:00:22;;;;;;;5.10;1.10;;;;;;;31.30;52.49;100407.13;20908141;28;20096;-68
2023/08/08 16:10:45;;;;;;;5.43;1.45;;;;;;;31.08;57.73;100422.38;20904197;28;20049;-68
2023/08/08 16:21:09;;;;;;;8.18;1.60;;;;;;;30.88;64.58;100420.22;20902078;28;20064;-68
2023/08/08 16:31:32;;;;;;;7.88;2.00;;;;;;;30.70;74.51;100429.75;20883448;28;20060;-69
2023/08/08 16:41:58;;;;;;;7.68;2.38;;;;;;;30.48;88.82;100434.00;20901612;28;20041;-68
2023/08/08 16:52:20;;;;;;;9.98;2.30;;;;;;;30.26;96.76;100449.31;20898656;28;20067;-68
2023/08/08 17:02:45;;;;;;;8.13;2.25;;;;;;;29.96;100.00;100450.47;20899088;28;20052;-69
2023/08/08 17:13:07;;;;;;;10.35;3.13;;;;;;;29.76;100.00;100450.94;20899170;28;20055;-69
2023/08/08 17:23:31;;;;;;;10.65;2.25;;;;;;;29.57;100.00;100453.19;20908724;28;20057;-69
2023/08/08 17:33:55;;;;;;;10.60;2.35;;;;;;;29.41;100.00;100463.34;20900409;28;20053;-69
2023/08/08 17:44:19;;;;;;;8.63;3.20;;;;;;;29.23;100.00;100470.88;20898106;28;20057;-70
2023/08/08 17:54:22;;;;;;;10.38;2.85;;;;;;;29.11;100.00;100478.00;20897127;28;20045;-70
2023/08/08 18:04:47;;;;;;;8.95;2.97;;;;;;;28.96;100.00;100481.72;20870257;28;20126;-70
2023/08/08 18:15:11;;;;;;;8.98;3.33;;;;;;;28.81;100.00;100490.88;20886780;28;21152;-71
2023/08/08 18:25:35;;;;;;;7.47;2.33;;;;;;;28.70;100.00;100496.06;20873921;28;20073;-71
2023/08/08 18:36:03;;;;;;;15.95;4.00;;;;;;;28.55;100.00;100495.22;20888334;28;20053;-71
2023/08/08 18:46:27;;;;;;;11.10;3.33;;;;;;;28.50;100.00;100498.22;20886141;28;20056;-70
2023/08/08 18:56:51;;;;;;;9.65;2.95;;;;;;;28.43;100.00;100505.00;20893409;28;20163;-70
2023/08/08 19:07:15;;;;;;;11.45;5.88;;;;;;;28.30;100.00;100493.16;20890607;28;20049;-71
2023/08/08 19:17:37;;;;;;;7.20;3.08;;;;;;;28.21;100.00;100512.75;20885926;28;20073;-69
2023/08/08 19:28:01;;;;;;;9.93;3.30;;;;;;;28.17;100.00;100504.84;20880267;28;20114;-68
2023/08/08 19:38:24;;;;;;;10.45;3.40;;;;;;;28.09;100.00;100516.19;20877643;28;20049;-69
2023/08/08 19:48:48;;;;;;;11.77;5.95;;;;;;;28.01;100.00;100519.34;20886298;28;20061;-69
2023/08/08 19:59:11;;;;;;;17.45;5.05;;;;;;;27.98;100.00;100519.53;20876621;28;20053;-69
2023/08/08 20:09:35;;;;;;;12.85;5.97;;;;;;;28.00;100.00;100514.00;20883668;28;20402;-69
2023/08/08 20:19:57;;;;;;;14.13;5.60;;;;;;;27.95;100.00;100518.84;20868134;28;20115;-69
2023/08/08 20:30:02;;;;;;;12.40;5.97;;;;;;;27.91;100.00;100509.13;20855367;28;20107;-69
2023/08/08 20:40:25;;;;;;;12.73;5.72;;;;;;;27.85;100.00;100512.22;20903636;28;20091;-69
2023/08/08 20:50:49;;;;;;;12.18;5.63;;;;;;;27.82;100.00;100515.13;20898292;28;20307;-69
2023/08/08 21:01:12;;;;;;;13.75;5.85;;;;;;;27.77;100.00;100509.94;20898701;28;20141;-69
2023/08/08 21:11:36;;;;;;;13.60;6.00;;;;;;;27.72;100.00;100502.09;20882918;28;20541;-68
2023/08/08 21:22:00;;;;;;;16.15;6.65;;;;;;;27.65;100.00;100497.13;20898902;28;20069;-68
2023/08/08 21:32:24;;;;;;;11.95;6.05;;;;;;;27.59;100.00;100495.66;20900265;28;20400;-69
2023/08/08 21:42:46;;;;;;;15.00;7.45;;;;;;;27.54;100.00;100496.88;20859214;28;20056;-69
2023/08/08 21:53:10;;;;;;;13.35;6.63;;;;;;;27.48;100.00;100494.50;20880194;28;20049;-69
2023/08/08 22:03:33;;;;;;;14.60;7.13;;;;;;;27.43;100.00;100486.66;20879251;28;20061;-70
2023/08/08 22:13:56;;;;;;;14.75;6.47;;;;;;;27.39;100.00;100476.94;20891739;28;20056;-69
2023/08/08 22:23:59;;;;;;;13.45;6.50;;;;;;;27.33;100.00;100470.03;20891072;28;20540;-69
2023/08/08 22:34:23;;;;;;;19.80;6.70;;;;;;;27.29;100.00;100459.47;20895352;28;20103;-68
2023/08/08 22:44:46;;;;;;;14.50;6.25;;;;;;;27.24;100.00;100465.13;20879658;28;20045;-69
2023/08/08 22:55:11;;;;;;;13.07;6.35;;;;;;;27.22;100.00;100449.94;20891478;28;20051;-69
2023/08/08 23:05:33;;;;;;;11.40;5.50;;;;;;;27.22;100.00;100461.66;20888155;28;20065;-70
2023/08/08 23:15:57;;;;;;;17.08;6.25;;;;;;;27.21;100.00;100461.72;20881383;28;20085;-69
2023/08/08 23:26:20;;;;;;;10.77;5.55;;;;;;;27.16;100.00;100458.44;20876190;28;20144;-69
2023/08/08 23:36:44;;;;;;;13.25;5.47;;;;;;;27.11;100.00;100455.97;20835618;28;20593;-69
2023/08/08 23:47:07;;;;;;;12.32;6.05;;;;;;;27.07;100.00;100450.81;20808023;28;20049;-70
2023/08/08 23:57:32;;;;;;;12.57;4.75;;;;;;;27.03;100.00;100441.13;20875580;28;20053;-70
